Aérodrome :







RETROUVEZ-NOUS SUR...

 
LOGIN :

S'inscrire | Disclaimer

   EN    FR    IT 

 









Légende :    VFR   VFR Marginal   IFR   IFR Intensif   IFR Très Intensif
Visi : 
Plafond : 
>= 8 km
>= 3000ft
5 à 8 km
1000 à 3000 ft
1500m à 5 km
500 à 1000 ft
800 à 1500m
200 à 500 ft
< 800m
< 200 ft
Symboles :   Orages  Brouillard  Fortes neiges  Fortes précipitations  Vent > 20 kt






- Altitude de l'aérodrome : 68 ft
- Code IATA : YFC


CYFC - Fredericton

DERNIER METAR :
  • 200400Z AUTO 36002KT 9SM OVC012 00/00 A2988 RMK SLP120

METARs EXPIRÉS :
  • 200316Z AUTO 33005KT 6SM BR OVC012 00/00 A2987 RMK SLP117
  • 200302Z AUTO 31003KT 3SM BR OVC012 00/00 A2987 RMK SLP118
  • 200253Z AUTO 32004KT 2 1/2SM BR OVC012 00/00 A2987 RMK SLP117
  • 200238Z AUTO 31003KT 2SM -RA BR OVC012 00/00 A2987 RMK SLP118
  • 200217Z AUTO VRB02KT 2 1/4SM BR OVC012 00/00 A2987 RMK SLP118
  • 200149Z AUTO 00000KT 3SM -SN BKN012 BKN030 OVC060 M00/M00 A2987 RMK SLP117
  • 200143Z AUTO 00000KT 3SM BR BKN012 BKN030 OVC055 M00/M00 A2987 RMK SLP118

TAF AMD TAF CYFC
Valide du 20 à 00h jusqu'au 20 à 12h UTC


200045Z 2000/2012 VRB03KT 11/2SM -RA -SNPL BR FEW002 OVC005
TEMPO 2000/2012 6SM BR FEW005 OVC012
PROB30 2003/2012 1SM -FZDZ BR RMK FCST BASED ON AUTO OBS. NXT FCST BY 200600Z



MET'MAP, la Météo Aéronautique d'un coup d'oeil ! - Copyright ORBIFLY Décembre 2007 - Disclaimer

ORBIFLY MET'MAP TEAM :

Programmation & Développement : Alexandra Zaïnal
Conception & Développement : Baudouin d'Aumeries
Co-Programmation & Développement : Marc-Olivier Méhu
Soutien technique & logistique : Manuel Goepfert

Contact : metmap@orbifly.com




SOURCES & CREDITS :

   NOAA